Willmar, Minnesota
Current Conditions -  °F | °C
As of 4:15 AM on Monday 26 Jan 2015 (Local Time) from KBDH Reporting Station
Scattered Clouds Scattered Clouds  
Wind Chill: 22°   Ceiling: Unl
Heat Index: 34°   Visibility: 10mi
Dew Point: 30°   Wind: 22mph
Humidity: 87%   Direction: 210°SSW
Pressure: 29.67"   Gusts: 26mph
Location:  45.12°N, 95.05°W
Report Text: KBDH 261015Z AUTO 21019G23KT 10SM SCT070 120 01/M01 A2967 RMK AO2
Loading
Personal Weather Stations






























Interactive Weather Map New forecast layout! Learn more

10-Day Weather Forecast

Advertisements
Track Severe Weather on mobile